Time;durP1;ratioP1;P1;durP2;ratioP2;P2;SDS_P1;SDS_P2;PMS_P1;PMS_P2;Temp;Humidity;BMP_temperature;BMP_pressure;BME280_temperature;BME280_humidity;BME280_pressure;Samples;Min_cycle;Max_cycle;Signal;HPM_P1;HPM_P2
2023/09/25 00:01:02;;;;;;;5.40;2.63;;;;;;;;;;5014882;28;20045;-75
2023/09/25 00:03:28;;;;;;;3.00;2.47;;;;;;;;;;5014648;28;20152;-75
2023/09/25 00:05:57;;;;;;;3.85;2.40;;;;;;;;;;5014518;28;20033;-75
2023/09/25 00:08:23;;;;;;;2.58;2.35;;;;;;;;;;5014515;28;20044;-75
2023/09/25 00:10:49;;;;;;;3.38;2.13;;;;;;;;;;5014473;28;20373;-75
2023/09/25 00:13:15;;;;;;;4.53;2.80;;;;;;;;;;5014381;28;20018;-75
2023/09/25 00:15:42;;;;;;;3.40;2.30;;;;;;;;;;5014073;28;20022;-75
2023/09/25 00:18:08;;;;;;;4.32;2.50;;;;;;;;;;5013948;28;20014;-75
2023/09/25 00:20:34;;;;;;;3.67;2.20;;;;;;;;;;5014186;28;20558;-75
2023/09/25 00:23:00;;;;;;;3.80;2.55;;;;;;;;;;5013638;28;20104;-75
2023/09/25 00:25:28;;;;;;;3.53;2.38;;;;;;;;;;5014347;28;20475;-75
2023/09/25 00:27:54;;;;;;;4.20;2.58;;;;;;;;;;5014267;28;20638;-75
2023/09/25 00:30:20;;;;;;;4.38;2.38;;;;;;;;;;5014021;28;20510;-75
2023/09/25 00:32:48;;;;;;;3.38;2.75;;;;;;;;;;5013939;28;20018;-75
2023/09/25 00:35:14;;;;;;;4.40;2.25;;;;;;;;;;5014143;28;20032;-75
2023/09/25 00:37:40;;;;;;;4.70;2.38;;;;;;;;;;5014042;28;20495;-75
2023/09/25 00:40:28;;;;;;;4.05;2.15;;;;;;;;;;5013801;28;20038;-75
2023/09/25 00:42:54;;;;;;;3.72;2.35;;;;;;;;;;5013315;28;20068;-75
2023/09/25 00:45:20;;;;;;;2.47;1.90;;;;;;;;;;5013894;28;20388;-75
2023/09/25 00:47:46;;;;;;;4.60;2.30;;;;;;;;;;5013784;28;20496;-75
2023/09/25 00:50:13;;;;;;;3.78;2.45;;;;;;;;;;5013711;28;20076;-75
2023/09/25 00:52:45;;;;;;;3.60;2.15;;;;;;;;;;5013683;28;20468;-75
2023/09/25 00:55:13;;;;;;;3.50;1.92;;;;;;;;;;5013697;28;20076;-75
2023/09/25 00:57:40;;;;;;;3.58;2.50;;;;;;;;;;5013536;28;20026;-75
2023/09/25 01:00:11;;;;;;;3.75;2.33;;;;;;;;;;5013463;28;20033;-75
2023/09/25 01:02:37;;;;;;;2.80;2.00;;;;;;;;;;5013615;28;20025;-75
2023/09/25 01:05:06;;;;;;;3.85;1.77;;;;;;;;;;5013515;28;20133;-75
2023/09/25 01:07:32;;;;;;;2.63;1.92;;;;;;;;;;5013875;28;20018;-75
2023/09/25 01:10:06;;;;;;;2.88;2.00;;;;;;;;;;5013382;28;20048;-75
2023/09/25 01:12:32;;;;;;;4.53;2.15;;;;;;;;;;5013533;28;20103;-75
2023/09/25 01:14:58;;;;;;;3.60;2.15;;;;;;;;;;5013790;28;20037;-75
2023/09/25 01:17:25;;;;;;;5.47;2.42;;;;;;;;;;5013445;28;20054;-75
2023/09/25 01:19:51;;;;;;;3.65;2.33;;;;;;;;;;5013278;28;20767;-75
2023/09/25 01:22:17;;;;;;;3.00;2.35;;;;;;;;;;5013209;28;20044;-75
2023/09/25 01:24:43;;;;;;;4.13;2.10;;;;;;;;;;5013517;28;20022;-75
2023/09/25 01:27:10;;;;;;;2.33;1.83;;;;;;;;;;5013417;28;20037;-75
2023/09/25 01:29:36;;;;;;;3.10;2.05;;;;;;;;;;5013324;28;20125;-75
2023/09/25 01:32:02;;;;;;;3.75;2.53;;;;;;;;;;5013362;28;20078;-75
2023/09/25 01:34:28;;;;;;;3.38;2.45;;;;;;;;;;5013438;28;20030;-75
2023/09/25 01:36:54;;;;;;;3.95;2.40;;;;;;;;;;5013317;28;20026;-75
2023/09/25 01:39:20;;;;;;;4.20;2.40;;;;;;;;;;5013415;28;20080;-75
2023/09/25 01:41:46;;;;;;;3.20;2.42;;;;;;;;;;5013297;28;20036;-75
2023/09/25 01:44:12;;;;;;;3.72;2.65;;;;;;;;;;5014107;28;20022;-75
2023/09/25 01:46:40;;;;;;;3.63;2.60;;;;;;;;;;5012313;28;20041;-75
2023/09/25 01:49:09;;;;;;;3.40;3.03;;;;;;;;;;5012027;28;20496;-75
2023/09/25 01:51:35;;;;;;;4.00;2.90;;;;;;;;;;5012448;28;20092;-74
2023/09/25 01:54:01;;;;;;;6.28;3.03;;;;;;;;;;5012734;28;20590;-74
2023/09/25 01:56:27;;;;;;;3.47;2.60;;;;;;;;;;5012975;28;20030;-74
2023/09/25 01:58:53;;;;;;;6.30;3.00;;;;;;;;;;5012739;28;20037;-74
2023/09/25 02:01:19;;;;;;;3.47;2.95;;;;;;;;;;4994957;28;20124;-74
2023/09/25 02:03:46;;;;;;;5.20;2.75;;;;;;;;;;5012727;28;20029;-74
2023/09/25 02:06:12;;;;;;;5.93;3.10;;;;;;;;;;5012928;28;20076;-74
2023/09/25 02:08:40;;;;;;;4.50;2.80;;;;;;;;;;5012456;28;20083;-74
2023/09/25 02:11:07;;;;;;;3.97;3.20;;;;;;;;;;5012974;28;20096;-74
2023/09/25 02:13:33;;;;;;;3.58;2.53;;;;;;;;;;5012970;28;20026;-74
2023/09/25 02:15:59;;;;;;;4.60;2.80;;;;;;;;;;4994933;28;20029;-74
2023/09/25 02:18:25;;;;;;;4.00;2.70;;;;;;;;;;5012536;28;20080;-74
2023/09/25 02:20:51;;;;;;;4.93;2.95;;;;;;;;;;5012421;28;20038;-75
2023/09/25 02:23:19;;;;;;;4.30;2.95;;;;;;;;;;5012488;28;20030;-74
2023/09/25 02:25:45;;;;;;;4.90;2.90;;;;;;;;;;5012793;28;20108;-74
2023/09/25 02:28:11;;;;;;;4.72;2.97;;;;;;;;;;4994808;28;20116;-74
2023/09/25 02:30:37;;;;;;;6.03;3.05;;;;;;;;;;5012486;28;20100;-74
2023/09/25 02:33:03;;;;;;;6.40;2.97;;;;;;;;;;5012407;28;20026;-74
2023/09/25 02:35:29;;;;;;;5.53;3.28;;;;;;;;;;5012564;28;20113;-74
2023/09/25 02:37:55;;;;;;;5.28;2.85;;;;;;;;;;5012335;28;20109;-74
2023/09/25 02:40:21;;;;;;;4.70;2.92;;;;;;;;;;5014663;28;20034;-74
2023/09/25 02:42:47;;;;;;;8.93;3.40;;;;;;;;;;5016237;28;20041;-74
2023/09/25 02:45:13;;;;;;;5.00;3.15;;;;;;;;;;5016190;28;20412;-74
2023/09/25 02:47:39;;;;;;;5.75;2.92;;;;;;;;;;5016066;28;20101;-74
2023/09/25 02:50:06;;;;;;;3.83;2.58;;;;;;;;;;5016043;28;20034;-74
2023/09/25 02:52:32;;;;;;;3.97;2.92;;;;;;;;;;5015921;28;20496;-74
2023/09/25 02:54:58;;;;;;;3.58;2.67;;;;;;;;;;5016018;28;20026;-74
2023/09/25 02:57:24;;;;;;;4.22;2.63;;;;;;;;;;5015995;28;20365;-74
2023/09/25 02:59:50;;;;;;;5.43;3.10;;;;;;;;;;5015776;28;20600;-74
2023/09/25 03:02:18;;;;;;;4.35;2.45;;;;;;;;;;5015864;28;20081;-74
2023/09/25 03:04:44;;;;;;;4.60;2.40;;;;;;;;;;5016007;28;20018;-74
2023/09/25 03:07:10;;;;;;;4.82;2.70;;;;;;;;;;5015712;28;20510;-74
2023/09/25 03:09:36;;;;;;;3.92;2.67;;;;;;;;;;5015694;28;20037;-74
2023/09/25 03:12:02;;;;;;;5.03;2.55;;;;;;;;;;5015612;28;20037;-74
2023/09/25 03:14:28;;;;;;;4.32;2.72;;;;;;;;;;5015514;28;20022;-74
2023/09/25 03:16:54;;;;;;;3.08;2.45;;;;;;;;;;5015603;28;20105;-74
2023/09/25 03:19:20;;;;;;;3.47;2.45;;;;;;;;;;5015444;28;20034;-74
2023/09/25 03:21:47;;;;;;;4.07;3.00;;;;;;;;;;5015429;28;20057;-74
2023/09/25 03:24:13;;;;;;;5.80;3.03;;;;;;;;;;5015534;28;20461;-74
2023/09/25 03:26:39;;;;;;;4.57;2.47;;;;;;;;;;5015344;28;20045;-74
2023/09/25 03:29:06;;;;;;;3.67;2.70;;;;;;;;;;5015222;28;20078;-74
2023/09/25 03:31:32;;;;;;;4.05;2.80;;;;;;;;;;5015513;28;20026;-74
2023/09/25 03:33:58;;;;;;;6.68;2.97;;;;;;;;;;5015143;28;20480;-74
2023/09/25 03:36:24;;;;;;;4.45;2.40;;;;;;;;;;5015314;28;20026;-74
2023/09/25 03:38:50;;;;;;;4.78;2.83;;;;;;;;;;5015236;28;20141;-74
2023/09/25 03:41:16;;;;;;;3.60;2.58;;;;;;;;;;5015030;28;20484;-74
2023/09/25 03:43:42;;;;;;;3.22;2.65;;;;;;;;;;5015055;28;20034;-74
2023/09/25 03:46:08;;;;;;;4.63;3.00;;;;;;;;;;5014934;28;20404;-74
2023/09/25 03:48:34;;;;;;;5.40;2.47;;;;;;;;;;5014946;28;20036;-74
2023/09/25 03:51:00;;;;;;;4.70;2.40;;;;;;;;;;5013625;28;20030;-74
2023/09/25 03:53:26;;;;;;;3.67;2.60;;;;;;;;;;5015137;28;20030;-74
2023/09/25 03:55:52;;;;;;;3.40;2.55;;;;;;;;;;5014755;28;20029;-74
2023/09/25 03:58:18;;;;;;;4.47;2.60;;;;;;;;;;5014758;28;20029;-74
2023/09/25 04:00:44;;;;;;;5.75;2.90;;;;;;;;;;5014559;28;20113;-74
2023/09/25 04:03:10;;;;;;;3.15;2.25;;;;;;;;;;5014542;28;20029;-74
2023/09/25 04:05:36;;;;;;;2.55;2.22;;;;;;;;;;5014521;28;20030;-74
2023/09/25 04:08:03;;;;;;;2.97;2.30;;;;;;;;;;5014532;28;20069;-74
2023/09/25 04:10:29;;;;;;;3.60;2.75;;;;;;;;;;5014586;28;20372;-74
2023/09/25 04:12:55;;;;;;;4.10;2.40;;;;;;;;;;5014489;28;20500;-74
2023/09/25 04:15:22;;;;;;;4.60;2.80;;;;;;;;;;5014374;28;20034;-74
2023/09/25 04:17:57;;;;;;;3.28;2.42;;;;;;;;;;5014295;28;20030;-74
2023/09/25 04:20:26;;;;;;;4.43;2.38;;;;;;;;;;5014507;28;20453;-74
2023/09/25 04:22:53;;;;;;;2.53;2.10;;;;;;;;;;5013790;28;20049;-74
2023/09/25 04:25:19;;;;;;;2.58;1.80;;;;;;;;;;5014034;28;20064;-74
2023/09/25 04:27:49;;;;;;;6.22;2.42;;;;;;;;;;5014182;28;20086;-74
2023/09/25 04:30:17;;;;;;;3.93;2.67;;;;;;;;;;5014051;28;20057;-75
2023/09/25 04:32:44;;;;;;;3.88;2.45;;;;;;;;;;5014359;28;20029;-74
2023/09/25 04:35:13;;;;;;;4.18;2.47;;;;;;;;;;5013968;28;20056;-74
2023/09/25 04:37:40;;;;;;;3.83;2.42;;;;;;;;;;5013856;28;20109;-74
2023/09/25 04:40:15;;;;;;;4.65;2.22;;;;;;;;;;5013805;28;20041;-75
2023/09/25 04:42:42;;;;;;;3.72;2.50;;;;;;;;;;5014323;28;20022;-74
2023/09/25 04:45:12;;;;;;;5.00;2.22;;;;;;;;;;5014061;28;20021;-74
2023/09/25 04:47:38;;;;;;;3.25;2.55;;;;;;;;;;5014159;28;20118;-74
2023/09/25 04:50:05;;;;;;;3.17;2.35;;;;;;;;;;5013807;28;20030;-74
2023/09/25 04:52:31;;;;;;;4.07;2.58;;;;;;;;;;5013794;28;20026;-74
2023/09/25 04:54:57;;;;;;;4.72;2.45;;;;;;;;;;5013839;28;20079;-74
2023/09/25 04:57:24;;;;;;;5.68;2.63;;;;;;;;;;5013716;28;20034;-74
2023/09/25 04:59:50;;;;;;;5.40;2.30;;;;;;;;;;5013658;28;20474;-74
2023/09/25 05:02:17;;;;;;;3.63;2.40;;;;;;;;;;5013172;28;20619;-74
2023/09/25 05:04:43;;;;;;;2.95;2.65;;;;;;;;;;5013511;28;20075;-74
2023/09/25 05:07:09;;;;;;;3.92;2.38;;;;;;;;;;5013528;28;20030;-74
2023/09/25 05:09:35;;;;;;;4.70;2.60;;;;;;;;;;5013432;28;20033;-74
2023/09/25 05:12:01;;;;;;;2.40;2.17;;;;;;;;;;5013288;28;20515;-74
2023/09/25 05:14:28;;;;;;;4.72;2.38;;;;;;;;;;5013177;28;20028;-74
2023/09/25 05:16:55;;;;;;;3.90;2.50;;;;;;;;;;4995698;28;20026;-74
2023/09/25 05:19:21;;;;;;;3.30;2.38;;;;;;;;;;5013572;28;20112;-74
2023/09/25 05:21:47;;;;;;;4.95;2.70;;;;;;;;;;5012525;28;20124;-74
2023/09/25 05:24:13;;;;;;;3.40;2.20;;;;;;;;;;5012975;28;20353;-74
2023/09/25 05:26:38;;;;;;;4.78;2.58;;;;;;;;;;5013010;28;20029;-74
2023/09/25 05:29:05;;;;;;;3.72;2.30;;;;;;;;;;5012919;28;20045;-74
2023/09/25 05:31:32;;;;;;;2.90;2.30;;;;;;;;;;5012861;28;20026;-74
2023/09/25 05:33:58;;;;;;;4.10;2.17;;;;;;;;;;5012850;28;20520;-74
2023/09/25 05:36:24;;;;;;;3.22;2.30;;;;;;;;;;5012424;28;20028;-74
2023/09/25 05:38:55;;;;;;;4.88;2.35;;;;;;;;;;5013236;28;20026;-74
2023/09/25 05:41:21;;;;;;;3.03;2.33;;;;;;;;;;5013224;28;20021;-74
2023/09/25 05:43:49;;;;;;;2.85;2.10;;;;;;;;;;5012856;28;20030;-74
2023/09/25 05:46:15;;;;;;;2.80;2.20;;;;;;;;;;5013125;28;20079;-74
2023/09/25 05:48:41;;;;;;;3.80;2.30;;;;;;;;;;5013120;28;20029;-74
2023/09/25 05:51:07;;;;;;;2.85;2.30;;;;;;;;;;5012563;28;20030;-74
2023/09/25 05:53:34;;;;;;;3.17;2.10;;;;;;;;;;5012791;28;20067;-74
2023/09/25 05:55:59;;;;;;;4.38;2.35;;;;;;;;;;4995057;28;20085;-74
2023/09/25 05:58:25;;;;;;;3.63;2.55;;;;;;;;;;5012663;28;20103;-74
2023/09/25 06:00:51;;;;;;;3.70;2.40;;;;;;;;;;5012456;28;20041;-74
2023/09/25 06:03:17;;;;;;;3.53;2.22;;;;;;;;;;4995741;28;20026;-74
2023/09/25 06:05:43;;;;;;;5.53;2.40;;;;;;;;;;4993007;28;20101;-74
2023/09/25 06:08:09;;;;;;;7.35;2.80;;;;;;;;;;4993016;28;20369;-74
2023/09/25 06:10:35;;;;;;;3.70;2.72;;;;;;;;;;4992994;28;20032;-74
2023/09/25 06:13:01;;;;;;;3.78;2.67;;;;;;;;;;4992965;28;20113;-74
2023/09/25 06:15:30;;;;;;;3.20;2.40;;;;;;;;;;4995677;28;20037;-75
2023/09/25 06:17:58;;;;;;;3.08;2.13;;;;;;;;;;4997294;28;20022;-74
2023/09/25 06:20:26;;;;;;;3.67;2.35;;;;;;;;;;4997198;28;20026;-74
2023/09/25 06:22:52;;;;;;;3.33;2.05;;;;;;;;;;4975713;28;20046;-74
2023/09/25 06:25:18;;;;;;;3.78;2.15;;;;;;;;;;4977454;28;20023;-75
2023/09/25 06:27:44;;;;;;;3.97;2.40;;;;;;;;;;4977452;28;20049;-74
2023/09/25 06:30:12;;;;;;;4.38;2.42;;;;;;;;;;4977308;28;20105;-74
2023/09/25 06:32:38;;;;;;;3.20;2.28;;;;;;;;;;4977346;28;20488;-74
2023/09/25 06:35:08;;;;;;;4.00;2.30;;;;;;;;;;4977411;28;20034;-74
2023/09/25 06:37:34;;;;;;;3.83;2.20;;;;;;;;;;4977223;28;20097;-74
2023/09/25 06:40:03;;;;;;;3.40;2.15;;;;;;;;;;4977125;28;20027;-74
2023/09/25 06:42:29;;;;;;;3.40;2.53;;;;;;;;;;4977138;28;20074;-74
2023/09/25 06:44:55;;;;;;;4.30;2.30;;;;;;;;;;4977080;28;20027;-74
2023/09/25 06:47:21;;;;;;;3.65;2.17;;;;;;;;;;4977054;28;20074;-74
2023/09/25 06:49:47;;;;;;;3.00;2.40;;;;;;;;;;4976921;28;20030;-74
2023/09/25 06:52:13;;;;;;;2.40;1.83;;;;;;;;;;4976971;28;20038;-74
2023/09/25 06:54:39;;;;;;;4.25;2.10;;;;;;;;;;4976923;28;20077;-74
2023/09/25 06:57:06;;;;;;;3.00;2.30;;;;;;;;;;4976877;28;20026;-74
2023/09/25 06:59:34;;;;;;;3.65;2.05;;;;;;;;;;4977132;28;20031;-74
2023/09/25 07:02:00;;;;;;;2.90;1.90;;;;;;;;;;4976698;28;20046;-74
2023/09/25 07:04:27;;;;;;;3.45;2.10;;;;;;;;;;4976734;28;20026;-74
2023/09/25 07:06:53;;;;;;;3.67;2.13;;;;;;;;;;4994046;28;20022;-74
2023/09/25 07:09:19;;;;;;;3.28;2.05;;;;;;;;;;4996015;28;20049;-74
2023/09/25 07:11:45;;;;;;;2.35;1.98;;;;;;;;;;4996291;28;20052;-74
2023/09/25 07:14:11;;;;;;;3.90;2.35;;;;;;;;;;4995898;28;20470;-74
2023/09/25 07:16:37;;;;;;;3.47;2.10;;;;;;;;;;4996256;28;20523;-75
2023/09/25 07:19:03;;;;;;;4.38;2.15;;;;;;;;;;4995933;28;20022;-74
2023/09/25 07:21:29;;;;;;;3.45;1.88;;;;;;;;;;5000173;28;20057;-75
2023/09/25 07:23:55;;;;;;;3.28;1.85;;;;;;;;;;5014148;28;20029;-74
2023/09/25 07:26:21;;;;;;;3.08;2.00;;;;;;;;;;5014877;28;20030;-74
2023/09/25 07:28:47;;;;;;;3.33;1.98;;;;;;;;;;5007676;28;20065;-74
2023/09/25 07:31:18;;;;;;;3.75;1.90;;;;;;;;;;5014504;28;20089;-74
2023/09/25 07:33:45;;;;;;;3.15;2.05;;;;;;;;;;5009833;28;20112;-75
2023/09/25 07:36:11;;;;;;;4.70;2.00;;;;;;;;;;5014808;28;20069;-74
2023/09/25 07:38:38;;;;;;;3.83;2.20;;;;;;;;;;5014659;28;20038;-75
2023/09/25 07:41:05;;;;;;;2.75;1.80;;;;;;;;;;5014833;28;20037;-74
2023/09/25 07:43:32;;;;;;;3.45;1.85;;;;;;;;;;5015195;28;20054;-75
2023/09/25 07:45:58;;;;;;;2.67;1.80;;;;;;;;;;5015610;28;20026;-74
2023/09/25 07:48:23;;;;;;;4.32;2.08;;;;;;;;;;5014894;28;20032;-75
2023/09/25 07:50:55;;;;;;;2.38;1.83;;;;;;;;;;5014828;28;20566;-75
2023/09/25 07:53:21;;;;;;;2.83;2.17;;;;;;;;;;5015139;28;20022;-74
2023/09/25 07:55:54;;;;;;;3.55;2.10;;;;;;;;;;5014443;28;20096;-75
2023/09/25 07:58:20;;;;;;;2.80;2.15;;;;;;;;;;5014684;28;20030;-75
2023/09/25 08:00:51;;;;;;;3.15;1.90;;;;;;;;;;5014726;28;20030;-75
2023/09/25 08:03:22;;;;;;;3.53;2.13;;;;;;;;;;5014792;28;20017;-75
2023/09/25 08:05:48;;;;;;;3.67;2.10;;;;;;;;;;5014618;28;20018;-75
2023/09/25 08:08:15;;;;;;;2.83;1.90;;;;;;;;;;5014518;28;20022;-75
2023/09/25 08:10:45;;;;;;;2.90;2.00;;;;;;;;;;5014754;28;20026;-75
2023/09/25 08:13:11;;;;;;;4.28;1.98;;;;;;;;;;5014475;28;20658;-75
2023/09/25 08:15:37;;;;;;;2.65;1.88;;;;;;;;;;5014155;28;20033;-75
2023/09/25 08:18:03;;;;;;;4.93;2.22;;;;;;;;;;5014522;28;20026;-75
2023/09/25 08:20:29;;;;;;;2.70;1.65;;;;;;;;;;5013670;28;20041;-75
2023/09/25 08:22:56;;;;;;;3.65;1.80;;;;;;;;;;5014310;28;20065;-75
2023/09/25 08:25:23;;;;;;;3.40;1.92;;;;;;;;;;5014525;28;20365;-75
2023/09/25 08:27:51;;;;;;;3.58;1.85;;;;;;;;;;5014173;28;20079;-75
2023/09/25 08:30:18;;;;;;;2.92;1.83;;;;;;;;;;5014634;28;20033;-75
2023/09/25 08:32:45;;;;;;;3.70;1.90;;;;;;;;;;5014388;28;20022;-75
2023/09/25 08:35:11;;;;;;;2.60;2.00;;;;;;;;;;5013971;28;20492;-75
2023/09/25 08:37:38;;;;;;;5.22;2.28;;;;;;;;;;5013258;28;20117;-75
2023/09/25 08:40:05;;;;;;;5.13;1.95;;;;;;;;;;5013857;28;20018;-75
2023/09/25 08:42:31;;;;;;;2.72;1.75;;;;;;;;;;5014377;28;20399;-75
2023/09/25 08:45:02;;;;;;;3.08;2.10;;;;;;;;;;5013895;28;20022;-75
2023/09/25 08:47:29;;;;;;;3.40;2.08;;;;;;;;;;5013915;28;20100;-75
2023/09/25 08:49:56;;;;;;;4.05;2.10;;;;;;;;;;5013810;28;20054;-75
2023/09/25 08:52:23;;;;;;;4.47;1.90;;;;;;;;;;5013992;28;20029;-75
2023/09/25 08:54:50;;;;;;;3.33;2.08;;;;;;;;;;5013652;28;20026;-75
2023/09/25 08:57:17;;;;;;;2.13;1.90;;;;;;;;;;5013918;28;20026;-75
2023/09/25 08:59:46;;;;;;;3.88;1.90;;;;;;;;;;5013712;28;20449;-75
2023/09/25 09:02:12;;;;;;;3.35;2.20;;;;;;;;;;5013466;28;20562;-75
2023/09/25 09:04:39;;;;;;;2.97;2.00;;;;;;;;;;5013516;28;20022;-75
2023/09/25 09:07:05;;;;;;;2.30;1.90;;;;;;;;;;5013416;28;20026;-75
2023/09/25 09:09:34;;;;;;;3.42;2.15;;;;;;;;;;5013354;28;20404;-75
2023/09/25 09:12:00;;;;;;;3.63;2.20;;;;;;;;;;5013398;28;20114;-75
2023/09/25 09:14:36;;;;;;;4.35;2.15;;;;;;;;;;5013338;28;20351;-75
2023/09/25 09:17:04;;;;;;;2.90;2.13;;;;;;;;;;5013373;28;20028;-75
2023/09/25 09:19:40;;;;;;;3.05;2.22;;;;;;;;;;5013186;28;20108;-75
2023/09/25 09:22:06;;;;;;;3.85;1.90;;;;;;;;;;5011443;28;20187;-75
2023/09/25 09:24:35;;;;;;;2.33;1.80;;;;;;;;;;5012359;28;20026;-75
2023/09/25 09:27:01;;;;;;;3.28;1.85;;;;;;;;;;5012556;28;20649;-75
2023/09/25 09:29:27;;;;;;;3.75;2.30;;;;;;;;;;5012320;28;20362;-75
2023/09/25 09:31:56;;;;;;;3.03;2.00;;;;;;;;;;5012284;28;20037;-75
2023/09/25 09:34:25;;;;;;;6.43;2.20;;;;;;;;;;5012221;28;20030;-75
2023/09/25 09:36:52;;;;;;;3.22;1.95;;;;;;;;;;5012187;28;20513;-75
2023/09/25 09:39:22;;;;;;;2.63;1.98;;;;;;;;;;5012086;28;20026;-75
2023/09/25 09:41:55;;;;;;;3.08;1.58;;;;;;;;;;5012097;28;20080;-75
2023/09/25 09:44:21;;;;;;;3.22;1.90;;;;;;;;;;5012119;28;20428;-75
2023/09/25 09:46:50;;;;;;;4.53;2.33;;;;;;;;;;5012430;28;20041;-75
2023/09/25 09:49:18;;;;;;;4.18;2.00;;;;;;;;;;5012190;28;20023;-75
2023/09/25 09:51:45;;;;;;;4.30;2.25;;;;;;;;;;5012028;28;20030;-75
2023/09/25 09:54:12;;;;;;;3.80;2.35;;;;;;;;;;5012017;28;20026;-75
2023/09/25 09:56:39;;;;;;;2.95;1.85;;;;;;;;;;5011971;28;20031;-75
2023/09/25 09:59:05;;;;;;;3.95;2.40;;;;;;;;;;5011887;28;20472;-75
2023/09/25 10:01:33;;;;;;;4.07;2.00;;;;;;;;;;5011732;28;20022;-75
2023/09/25 10:04:03;;;;;;;4.05;2.20;;;;;;;;;;5012127;28;20022;-75
2023/09/25 10:06:29;;;;;;;3.58;2.00;;;;;;;;;;5012227;28;20084;-75
2023/09/25 10:09:01;;;;;;;3.13;2.15;;;;;;;;;;5011680;28;20018;-75
2023/09/25 10:11:27;;;;;;;3.40;2.00;;;;;;;;;;5011771;28;20030;-75
2023/09/25 10:13:55;;;;;;;3.42;1.98;;;;;;;;;;5011874;28;20018;-75
2023/09/25 10:16:21;;;;;;;3.13;1.95;;;;;;;;;;5012053;28;20388;-75
2023/09/25 10:18:52;;;;;;;3.55;2.00;;;;;;;;;;5011675;28;20081;-75
2023/09/25 10:21:18;;;;;;;2.72;2.28;;;;;;;;;;4970390;28;1181448;-76
2023/09/25 10:23:48;;;;;;;2.80;1.92;;;;;;;;;;5012486;28;20029;-75
2023/09/25 10:26:18;;;;;;;4.05;2.28;;;;;;;;;;5012898;28;20021;-76
2023/09/25 10:28:44;;;;;;;2.97;2.28;;;;;;;;;;5012552;28;20029;-75
2023/09/25 10:31:25;;;;;;;2.72;2.22;;;;;;;;;;5012520;28;20092;-75
2023/09/25 10:33:55;;;;;;;4.80;2.58;;;;;;;;;;5012190;28;20026;-75
2023/09/25 10:36:21;;;;;;;4.65;2.17;;;;;;;;;;5012434;28;20030;-75
2023/09/25 10:38:55;;;;;;;3.08;2.25;;;;;;;;;;5012344;28;20025;-75
2023/09/25 10:41:22;;;;;;;3.60;2.47;;;;;;;;;;5012443;28;20362;-75
2023/09/25 10:43:49;;;;;;;3.80;2.60;;;;;;;;;;5012537;28;20029;-75
2023/09/25 10:46:15;;;;;;;2.92;2.13;;;;;;;;;;5012320;28;20412;-75
2023/09/25 10:48:41;;;;;;;4.05;2.35;;;;;;;;;;5012096;28;20034;-75
2023/09/25 10:51:07;;;;;;;3.78;2.53;;;;;;;;;;5011772;28;20395;-75
2023/09/25 10:53:33;;;;;;;5.05;2.25;;;;;;;;;;5012138;28;20026;-75
2023/09/25 10:55:59;;;;;;;3.58;2.40;;;;;;;;;;5009549;28;20113;-75
2023/09/25 10:58:26;;;;;;;3.42;2.30;;;;;;;;;;5011902;28;20037;-75
2023/09/25 11:00:52;;;;;;;3.65;2.20;;;;;;;;;;5013663;28;20117;-75
2023/09/25 11:03:18;;;;;;;3.72;2.70;;;;;;;;;;5015745;28;20448;-75
2023/09/25 11:05:45;;;;;;;4.95;2.88;;;;;;;;;;5015828;28;20029;-75
2023/09/25 11:08:15;;;;;;;4.55;2.45;;;;;;;;;;5015438;28;20034;-75
2023/09/25 11:10:41;;;;;;;4.22;2.38;;;;;;;;;;5015746;28;20113;-75
2023/09/25 11:13:08;;;;;;;2.95;2.30;;;;;;;;;;5015573;28;20021;-75
2023/09/25 11:15:38;;;;;;;3.88;2.45;;;;;;;;;;5015420;28;20108;-75
2023/09/25 11:18:04;;;;;;;;;;;;;;;;;;5015901;28;20097;-75
2023/09/25 11:20:30;;;;;;;5.85;2.63;;;;;;;;;;5015417;28;19923;-75
2023/09/25 11:23:06;;;;;;;4.55;2.67;;;;;;;;;;5014337;28;20054;-75
2023/09/25 11:25:38;;;;;;;4.50;2.40;;;;;;;;;;5015766;28;20365;-75
2023/09/25 11:28:06;;;;;;;3.53;2.58;;;;;;;;;;5015569;28;20022;-75
2023/09/25 11:30:32;;;;;;;3.38;2.35;;;;;;;;;;5015446;28;20373;-75
2023/09/25 11:33:03;;;;;;;3.35;2.20;;;;;;;;;;5015274;28;20026;-75
2023/09/25 11:35:29;;;;;;;4.63;2.40;;;;;;;;;;5015282;28;20489;-75
2023/09/25 11:37:57;;;;;;;3.10;2.35;;;;;;;;;;5015244;28;20373;-75
2023/09/25 11:40:23;;;;;;;3.30;2.50;;;;;;;;;;5015281;28;20385;-75
2023/09/25 11:42:49;;;;;;;4.45;2.70;;;;;;;;;;5014921;28;20449;-75
2023/09/25 11:45:15;;;;;;;3.63;2.28;;;;;;;;;;5014894;28;20066;-75
2023/09/25 11:47:43;;;;;;;4.03;2.38;;;;;;;;;;5015295;28;20681;-75
2023/09/25 11:50:11;;;;;;;5.25;2.47;;;;;;;;;;5014829;28;20105;-75
2023/09/25 11:52:37;;;;;;;4.80;2.88;;;;;;;;;;5015143;28;20022;-75
2023/09/25 11:55:04;;;;;;;5.07;2.40;;;;;;;;;;5015129;28;20028;-75
2023/09/25 11:57:30;;;;;;;4.25;2.75;;;;;;;;;;5014856;28;20029;-75
2023/09/25 11:59:56;;;;;;;5.18;2.63;;;;;;;;;;5014729;28;20457;-75
2023/09/25 12:02:25;;;;;;;5.22;3.10;;;;;;;;;;5014645;28;20120;-75
2023/09/25 12:04:54;;;;;;;5.03;2.70;;;;;;;;;;5014970;28;20026;-75
2023/09/25 12:07:21;;;;;;;5.72;2.50;;;;;;;;;;5014866;28;20026;-75
2023/09/25 12:09:47;;;;;;;4.57;2.72;;;;;;;;;;5014617;28;20054;-75
2023/09/25 12:12:13;;;;;;;5.53;2.60;;;;;;;;;;5013456;28;20113;-75
2023/09/25 12:14:40;;;;;;;3.53;2.45;;;;;;;;;;5014593;28;20108;-75
2023/09/25 12:17:07;;;;;;;4.22;2.67;;;;;;;;;;5014469;28;20453;-75
2023/09/25 12:19:33;;;;;;;3.08;2.45;;;;;;;;;;5014473;28;20022;-76
2023/09/25 12:22:00;;;;;;;4.25;2.25;;;;;;;;;;5014248;28;20092;-76
2023/09/25 12:24:26;;;;;;;6.10;2.55;;;;;;;;;;5014193;28;20550;-75
2023/09/25 12:26:52;;;;;;;3.88;2.80;;;;;;;;;;5014204;28;20033;-75
2023/09/25 12:29:18;;;;;;;4.50;2.67;;;;;;;;;;5014170;28;20026;-75
2023/09/25 12:31:44;;;;;;;3.58;2.10;;;;;;;;;;5014173;28;20034;-75
2023/09/25 12:34:10;;;;;;;3.05;2.33;;;;;;;;;;5014059;28;20084;-75
2023/09/25 12:36:36;;;;;;;6.80;2.90;;;;;;;;;;5014032;28;20465;-76
2023/09/25 12:39:02;;;;;;;4.65;2.90;;;;;;;;;;5014316;28;20030;-75
2023/09/25 12:41:29;;;;;;;5.95;2.85;;;;;;;;;;5013851;28;20037;-76
2023/09/25 12:43:54;;;;;;;5.03;2.60;;;;;;;;;;5014166;28;20145;-76
2023/09/25 12:46:20;;;;;;;5.65;2.70;;;;;;;;;;5013880;28;20400;-75
2023/09/25 12:48:47;;;;;;;5.75;2.80;;;;;;;;;;5012361;28;20101;-75
2023/09/25 12:51:13;;;;;;;3.17;2.40;;;;;;;;;;4993759;28;20057;-76
2023/09/25 12:53:39;;;;;;;3.95;2.92;;;;;;;;;;4994138;28;20062;-75
2023/09/25 12:56:05;;;;;;;4.65;2.60;;;;;;;;;;4993987;28;20027;-75
2023/09/25 12:58:31;;;;;;;5.93;2.60;;;;;;;;;;4993830;28;20026;-75
2023/09/25 13:00:57;;;;;;;4.63;2.80;;;;;;;;;;4994096;28;20034;-76
2023/09/25 13:03:23;;;;;;;5.35;3.30;;;;;;;;;;4994049;28;20033;-75
2023/09/25 13:05:49;;;;;;;6.47;2.85;;;;;;;;;;4994084;28;20491;-76
2023/09/25 13:08:15;;;;;;;8.02;3.15;;;;;;;;;;4976917;28;20556;-76
2023/09/25 13:10:41;;;;;;;6.85;3.30;;;;;;;;;;4994427;28;20033;-76
2023/09/25 13:13:07;;;;;;;7.82;3.22;;;;;;;;;;4994129;28;20022;-76
2023/09/25 13:15:33;;;;;;;7.43;2.90;;;;;;;;;;4994520;28;20022;-76
2023/09/25 13:17:59;;;;;;;4.63;2.60;;;;;;;;;;4994190;28;20084;-76
2023/09/25 13:20:26;;;;;;;9.70;2.88;;;;;;;;;;4994026;28;20030;-76
2023/09/25 13:22:52;;;;;;;6.22;2.78;;;;;;;;;;4993722;28;20125;-76
2023/09/25 13:25:18;;;;;;;5.30;3.00;;;;;;;;;;4994198;28;20069;-76
2023/09/25 13:27:48;;;;;;;6.22;3.55;;;;;;;;;;4994855;28;20030;-76
2023/09/25 13:30:17;;;;;;;4.95;3.03;;;;;;;;;;4994152;28;20046;-76
2023/09/25 13:32:43;;;;;;;6.28;3.10;;;;;;;;;;4994250;28;20525;-76
2023/09/25 13:35:09;;;;;;;6.38;3.00;;;;;;;;;;4994065;28;20023;-76
2023/09/25 13:37:35;;;;;;;5.85;2.85;;;;;;;;;;4993661;28;20026;-76
2023/09/25 13:40:04;;;;;;;6.68;3.35;;;;;;;;;;4993763;28;20034;-76
2023/09/25 13:42:30;;;;;;;4.80;3.00;;;;;;;;;;4994397;28;20030;-76
2023/09/25 13:44:56;;;;;;;6.40;3.28;;;;;;;;;;4994432;28;20033;-76
2023/09/25 13:47:22;;;;;;;7.20;3.13;;;;;;;;;;4994193;28;20089;-76
2023/09/25 13:49:50;;;;;;;7.20;3.33;;;;;;;;;;4993953;28;20030;-76
2023/09/25 13:52:16;;;;;;;5.85;3.03;;;;;;;;;;4993907;28;20033;-76
2023/09/25 13:54:42;;;;;;;9.10;3.33;;;;;;;;;;4993699;28;20025;-76
2023/09/25 13:57:08;;;;;;;8.52;3.33;;;;;;;;;;4993298;28;20033;-75
2023/09/25 13:59:35;;;;;;;6.63;3.50;;;;;;;;;;4993243;28;20113;-75
2023/09/25 14:02:01;;;;;;;5.93;3.30;;;;;;;;;;4975999;28;20038;-76
2023/09/25 14:04:29;;;;;;;5.50;3.13;;;;;;;;;;4993519;28;20015;-75
2023/09/25 14:06:56;;;;;;;6.03;3.88;;;;;;;;;;4994318;28;20023;-75
2023/09/25 14:09:24;;;;;;;6.75;3.85;;;;;;;;;;4993074;28;20050;-75
2023/09/25 14:11:51;;;;;;;8.98;3.97;;;;;;;;;;5009385;28;20026;-76
2023/09/25 14:14:19;;;;;;;6.10;3.63;;;;;;;;;;5005671;28;20342;-75
2023/09/25 14:16:46;;;;;;;6.10;3.80;;;;;;;;;;5012703;28;20025;-75
2023/09/25 14:19:12;;;;;;;8.68;3.78;;;;;;;;;;5012859;28;20109;-75
2023/09/25 14:21:38;;;;;;;6.53;3.47;;;;;;;;;;5012011;28;20129;-76
2023/09/25 14:24:05;;;;;;;5.25;3.20;;;;;;;;;;5012446;28;20041;-75
2023/09/25 14:26:31;;;;;;;7.55;2.90;;;;;;;;;;5012457;28;20045;-75
2023/09/25 14:28:57;;;;;;;6.80;3.45;;;;;;;;;;5012445;28;20112;-75
2023/09/25 14:31:23;;;;;;;8.68;3.65;;;;;;;;;;5012459;28;20124;-75
2023/09/25 14:33:49;;;;;;;6.40;3.38;;;;;;;;;;5012240;28;20469;-75
2023/09/25 14:36:15;;;;;;;6.63;3.47;;;;;;;;;;5014257;28;20026;-75
2023/09/25 14:38:41;;;;;;;6.03;3.63;;;;;;;;;;5016314;28;20034;-75
2023/09/25 14:41:07;;;;;;;5.25;2.92;;;;;;;;;;5016012;28;20465;-75